Mississippi Enterprise — WDE2542 — position and weather

sailwx.info

Track history (hours):
 
Tides and Currents Weather Stations Pressure Air Temp Water Temp Dewpoint Dewpoint Depression Visibility Wind Speed Wind Dir Waves Ship Positions

Mississippi Enterprise

Owner: Seabulk Fleet Management, Tampa, FL. More information available from US FCC via Universal Licensing System and Coast Guard Vessel Documentation Center.

Last reported at 2018-Jun-08 22:09 UTC. Time now 2018-Jun-20 07:53 UTC.
Position N 25°27' W 080°00'.
Warning: this ship's position is 11 days out of date.

Length 187 m; draft 5 m.

Type: Cargo ship. MMSI: 369813000.

Date/timePositionNaut miles runAvg speedWind from/ knotsBaromVisibWave heightAir tempDewpointWater temp
2018-Jun-08 22:09N 25°27' W 080°00'213.0
2018-Jun-08 22:00N 25°29' W 080°00'612.8
2018-Jun-08 21:30N 25°35' W 079°60'612.4
2018-Jun-08 21:01N 25°42' W 079°59'612.1
2018-Jun-08 20:30N 25°48' W 079°59'611.4
2018-Jun-08 20:00N 25°53' W 079°58'510.9
2018-Jun-08 19:30N 25°59' W 079°57'510.7
2018-Jun-08 19:00N 26°04' W 079°57'510.8
2018-Jun-08 18:31N 26°09' W 079°57'511.0
2018-Jun-08 18:01N 26°15' W 079°56'611.0
2018-Jun-08 17:31N 26°20' W 079°56'611.1
2018-Jun-08 17:00N 26°26' W 079°56'611.4
2018-Jun-08 16:30N 26°32' W 079°55'1711.8
2018-Jun-08 15:01N 26°49' W 079°54'111.8
2018-Jun-08 14:59N 26°50' W 079°54'612.0
2018-Jun-08 14:28N 26°56' W 079°53'611.9
2018-Jun-08 14:00N 27°01' W 079°53'  
2018-Jun-05 13:41N 30°25' W 081°16'0 1.0
2018-Jun-05 13:24N 30°25' W 081°16'1 1.6
2018-Jun-05 12:46N 30°24' W 081°18'21813.8
2018-Jun-04 21:01N 27°01' W 079°49'0 4.3
2018-Jun-04 21:00N 27°01' W 079°49'3 4.5
2018-Jun-04 20:27N 26°58' W 079°49'2 4.4
2018-Jun-04 20:00N 26°56' W 079°49'2 4.2
2018-Jun-04 19:30N 26°54' W 079°49'33 7.1
2018-Jun-04 14:55N 26°21' W 079°47'717.4
2018-Jun-04 14:30N 26°14' W 079°48'917.6
2018-Jun-04 14:00N 26°06' W 079°49'917.7
2018-Jun-04 13:30N 25°57' W 079°51'917.9
2018-Jun-04 13:00N 25°48' W 079°52'917.9
2018-Jun-04 12:30N 25°39' W 079°54'917.6
2018-Jun-04 12:00N 25°30' W 079°56'  
Track history (hours):
 
Tides and Currents Weather Stations Pressure Air Temp Water Temp Dewpoint Dewpoint Depression Visibility Wind Speed Wind Dir Waves Ship Positions

Mississippi Enterprise

Owner: Seabulk Fleet Management, Tampa, FL. More information available from US FCC via Universal Licensing System and Coast Guard Vessel Documentation Center.

Last reported at 2018-Jun-08 22:09 UTC. Time now 2018-Jun-20 07:53 UTC.
Position N 25°27' W 080°00'.
Warning: this ship's position is 11 days out of date.

Length 187 m; draft 5 m.

Type: Cargo ship. MMSI: 369813000.

Date/timePositionNaut miles runAvg speedWind from/ knotsBaromVisibWave heightAir tempDewpointWater temp
2018-Jun-08 22:09N 25°27' W 080°00'213.0
2018-Jun-08 22:00N 25°29' W 080°00'612.8
2018-Jun-08 21:30N 25°35' W 079°60'612.4
2018-Jun-08 21:01N 25°42' W 079°59'612.1
2018-Jun-08 20:30N 25°48' W 079°59'611.4
2018-Jun-08 20:00N 25°53' W 079°58'510.9
2018-Jun-08 19:30N 25°59' W 079°57'510.7
2018-Jun-08 19:00N 26°04' W 079°57'510.8
2018-Jun-08 18:31N 26°09' W 079°57'511.0
2018-Jun-08 18:01N 26°15' W 079°56'611.0
2018-Jun-08 17:31N 26°20' W 079°56'611.1
2018-Jun-08 17:00N 26°26' W 079°56'611.4
2018-Jun-08 16:30N 26°32' W 079°55'1711.8
2018-Jun-08 15:01N 26°49' W 079°54'111.8
2018-Jun-08 14:59N 26°50' W 079°54'612.0
2018-Jun-08 14:28N 26°56' W 079°53'611.9
2018-Jun-08 14:00N 27°01' W 079°53'  
2018-Jun-05 13:41N 30°25' W 081°16'0 1.0
2018-Jun-05 13:24N 30°25' W 081°16'1 1.6
2018-Jun-05 12:46N 30°24' W 081°18'21813.8
2018-Jun-04 21:01N 27°01' W 079°49'0 4.3
2018-Jun-04 21:00N 27°01' W 079°49'3 4.5
2018-Jun-04 20:27N 26°58' W 079°49'2 4.4
2018-Jun-04 20:00N 26°56' W 079°49'2 4.2
2018-Jun-04 19:30N 26°54' W 079°49'33 7.1
2018-Jun-04 14:55N 26°21' W 079°47'717.4
2018-Jun-04 14:30N 26°14' W 079°48'917.6
2018-Jun-04 14:00N 26°06' W 079°49'917.7
2018-Jun-04 13:30N 25°57' W 079°51'917.9
2018-Jun-04 13:00N 25°48' W 079°52'917.9
2018-Jun-04 12:30N 25°39' W 079°54'917.6
2018-Jun-04 12:00N 25°30' W 079°56'  

Dump ship's entire track history